createdAt,value
2023-04-21T00:00:37.782Z,7.39
2023-04-21T00:03:03.458Z,7.32
2023-04-21T00:05:16.217Z,7.29
2023-04-21T00:07:30.588Z,7.27
2023-04-21T00:09:43.247Z,7.25
2023-04-21T00:11:56.145Z,7.22
2023-04-21T00:14:08.750Z,7.18
2023-04-21T00:16:21.338Z,7.15
2023-04-21T00:18:33.948Z,7.12
2023-04-21T00:20:46.602Z,7.08
2023-04-21T00:22:59.958Z,7.02
2023-04-21T00:25:12.533Z,7.00
2023-04-21T00:27:25.124Z,6.98
2023-04-21T00:29:38.845Z,6.95
2023-04-21T00:31:51.531Z,6.92
2023-04-21T00:34:04.200Z,6.90
2023-04-21T00:36:16.764Z,6.86
2023-04-21T00:38:29.304Z,6.84
2023-04-21T00:40:41.926Z,6.81
2023-04-21T00:42:54.505Z,6.78
2023-04-21T00:45:07.771Z,6.74
2023-04-21T00:47:20.432Z,6.69
2023-04-21T00:49:33.145Z,6.67
2023-04-21T00:51:45.962Z,6.64
2023-04-21T00:53:59.613Z,6.62
2023-04-21T00:56:12.862Z,6.60
2023-04-21T00:58:25.490Z,6.58
2023-04-21T01:00:39.503Z,6.55
2023-04-21T01:02:52.269Z,6.49
2023-04-21T01:05:09.039Z,6.46
2023-04-21T01:07:21.661Z,6.41
2023-04-21T01:09:34.804Z,6.36
2023-04-21T01:12:04.477Z,6.34
2023-04-21T01:14:17.014Z,6.29
2023-04-21T01:16:29.610Z,6.29
2023-04-21T01:18:42.264Z,6.29
2023-04-21T01:20:54.785Z,6.29
2023-04-21T01:23:07.343Z,6.27
2023-04-21T01:25:25.750Z,6.26
2023-04-21T01:27:38.621Z,6.24
2023-04-21T01:29:52.332Z,6.22
2023-04-21T01:32:07.957Z,6.14
2023-04-21T01:34:20.686Z,6.10
2023-04-21T01:36:33.515Z,6.09
2023-04-21T01:38:46.111Z,6.05
2023-04-21T01:40:58.777Z,6.02
2023-04-21T01:43:11.500Z,6.02
2023-04-21T01:45:24.118Z,6.04
2023-04-21T01:47:36.764Z,6.06
2023-04-21T01:49:49.580Z,6.07
2023-04-21T01:52:02.221Z,6.09
2023-04-21T01:54:14.892Z,6.10
2023-04-21T01:56:27.428Z,6.13
2023-04-21T01:58:39.998Z,6.15
2023-04-21T02:00:52.570Z,6.18
2023-04-21T02:03:05.288Z,6.19
2023-04-21T02:05:18.046Z,6.18
2023-04-21T02:07:30.570Z,6.14
2023-04-21T02:09:43.140Z,6.10
2023-04-21T02:11:57.168Z,6.07
2023-04-21T02:14:09.751Z,6.00
2023-04-21T02:16:26.353Z,6.00
2023-04-21T02:18:40.002Z,5.99
2023-04-21T02:20:52.621Z,5.98
2023-04-21T02:23:05.208Z,5.94
2023-04-21T02:25:17.774Z,5.90
2023-04-21T02:27:30.406Z,5.85
2023-04-21T02:29:42.945Z,5.82
2023-04-21T02:32:02.896Z,5.78
2023-04-21T02:34:18.036Z,5.72
2023-04-21T02:36:30.889Z,5.68
2023-04-21T02:38:43.476Z,5.66
2023-04-21T02:40:57.059Z,5.65
2023-04-21T02:43:09.661Z,5.64
2023-04-21T02:45:22.155Z,5.62
2023-04-21T02:47:34.767Z,5.59
2023-04-21T02:49:47.426Z,5.57
2023-04-21T02:51:59.956Z,5.53
2023-04-21T02:54:12.511Z,5.53
2023-04-21T02:56:25.258Z,5.53
2023-04-21T02:58:37.880Z,5.52
2023-04-21T03:00:50.742Z,5.53
2023-04-21T03:03:03.919Z,5.52
2023-04-21T03:05:17.618Z,5.51
2023-04-21T03:07:30.278Z,5.52
2023-04-21T03:09:42.872Z,5.50
2023-04-21T03:11:55.684Z,5.46
2023-04-21T03:14:08.199Z,5.46
2023-04-21T03:16:20.827Z,5.44
2023-04-21T03:18:36.024Z,5.43
2023-04-21T03:20:48.575Z,5.43
2023-04-21T03:23:01.119Z,5.39
2023-04-21T03:25:13.694Z,5.31
2023-04-21T03:27:26.241Z,5.29
2023-04-21T03:29:38.813Z,5.28
2023-04-21T03:31:51.463Z,5.26
2023-04-21T03:34:21.290Z,5.23
2023-04-21T03:36:33.877Z,5.08
2023-04-21T03:38:46.475Z,5.07
2023-04-21T03:40:58.997Z,5.03
2023-04-21T03:43:11.508Z,5.03
2023-04-21T03:45:24.216Z,5.03
2023-04-21T03:47:37.103Z,5.00
2023-04-21T03:49:49.671Z,4.92
2023-04-21T03:52:02.486Z,4.89
2023-04-21T03:54:15.278Z,4.89
2023-04-21T03:56:27.813Z,4.90
2023-04-21T03:58:40.546Z,4.89
2023-04-21T04:00:53.103Z,4.88
2023-04-21T04:03:05.916Z,4.91
2023-04-21T04:05:18.680Z,4.91
2023-04-21T04:07:35.346Z,4.91
2023-04-21T04:09:48.044Z,4.87
2023-04-21T04:12:01.620Z,4.85
2023-04-21T04:14:14.294Z,4.81
2023-04-21T04:16:28.876Z,4.81
2023-04-21T04:18:41.688Z,4.85
2023-04-21T04:20:54.293Z,4.82
2023-04-21T04:23:06.868Z,4.81
2023-04-21T04:25:19.471Z,4.79
2023-04-21T04:27:32.377Z,4.81
2023-04-21T04:29:46.462Z,4.89
2023-04-21T04:32:01.513Z,4.93
2023-04-21T04:34:15.608Z,4.94
2023-04-21T04:36:28.494Z,4.95
2023-04-21T04:38:41.717Z,5.03
2023-04-21T04:40:55.162Z,5.07
2023-04-21T04:43:08.847Z,5.16
2023-04-21T04:45:22.228Z,5.22
2023-04-21T04:47:35.552Z,5.28
2023-04-21T04:49:48.223Z,5.35
2023-04-21T04:52:01.910Z,5.45
2023-04-21T04:54:14.433Z,5.52
2023-04-21T04:56:26.997Z,5.63
2023-04-21T04:58:39.520Z,5.72
2023-04-21T05:00:52.129Z,5.82
2023-04-21T05:03:05.081Z,5.91
2023-04-21T05:05:17.927Z,5.99
2023-04-21T05:07:30.549Z,6.08
2023-04-21T05:09:43.062Z,6.22
2023-04-21T05:11:56.497Z,6.34
2023-04-21T05:14:09.256Z,6.47
2023-04-21T05:16:21.836Z,6.61
2023-04-21T05:18:34.459Z,6.73
2023-04-21T05:20:46.994Z,6.86
2023-04-21T05:22:59.541Z,7.01
2023-04-21T05:25:15.905Z,7.18
2023-04-21T05:27:28.516Z,7.35
2023-04-21T05:29:41.286Z,7.50
2023-04-21T05:31:53.901Z,7.67
2023-04-21T05:34:06.498Z,7.83
2023-04-21T05:36:20.429Z,7.98
2023-04-21T05:38:33.032Z,8.15
2023-04-21T05:40:52.941Z,8.32
2023-04-21T05:43:05.532Z,8.51
2023-04-21T05:45:18.215Z,8.67
2023-04-21T05:47:30.791Z,8.86
2023-04-21T05:49:49.975Z,9.06
2023-04-21T05:52:02.937Z,9.24
2023-04-21T05:54:16.576Z,9.44
2023-04-21T05:56:29.232Z,9.59
2023-04-21T05:58:41.944Z,9.76
2023-04-21T06:00:54.532Z,9.95
2023-04-21T06:03:07.324Z,10.16
2023-04-21T06:05:20.235Z,10.35
2023-04-21T06:07:32.764Z,10.55
2023-04-21T06:09:49.975Z,10.75
2023-04-21T06:12:03.304Z,10.93
2023-04-21T06:14:15.867Z,11.08
2023-04-21T06:16:34.116Z,11.25
2023-04-21T06:18:47.051Z,11.41
2023-04-21T06:20:59.882Z,11.56
2023-04-21T06:23:12.459Z,11.69
2023-04-21T06:25:24.988Z,11.82
2023-04-21T06:27:37.494Z,11.97
2023-04-21T06:29:55.786Z,12.13
2023-04-21T06:32:08.985Z,12.30
2023-04-21T06:34:21.892Z,12.48
2023-04-21T06:36:34.656Z,12.64
2023-04-21T06:38:47.447Z,12.82
2023-04-21T06:41:00.126Z,13.02
2023-04-21T06:43:12.661Z,13.19
2023-04-21T06:45:25.370Z,13.38
2023-04-21T06:47:38.018Z,13.58
2023-04-21T06:49:50.741Z,13.78
2023-04-21T06:52:04.532Z,13.94
2023-04-21T06:54:17.044Z,14.11
2023-04-21T06:56:30.539Z,14.26
2023-04-21T06:58:43.068Z,14.40
2023-04-21T07:00:55.863Z,14.53
2023-04-21T07:03:09.262Z,14.64
2023-04-21T07:05:22.263Z,14.73
2023-04-21T07:07:35.388Z,14.88
2023-04-21T07:09:48.748Z,14.95
2023-04-21T07:12:02.826Z,15.02
2023-04-21T07:14:15.927Z,15.11
2023-04-21T07:16:29.647Z,15.28
2023-04-21T07:18:42.424Z,15.50
2023-04-21T07:20:55.363Z,15.67
2023-04-21T07:23:08.507Z,15.85
2023-04-21T07:25:21.634Z,15.99
2023-04-21T07:27:38.210Z,16.11
2023-04-21T07:29:51.042Z,16.29
2023-04-21T07:32:03.664Z,16.44
2023-04-21T07:34:16.202Z,16.56
2023-04-21T07:36:30.558Z,16.64
2023-04-21T07:38:44.515Z,16.76
2023-04-21T07:40:57.107Z,16.95
2023-04-21T07:43:09.697Z,17.17
2023-04-21T07:45:22.252Z,17.38
2023-04-21T07:47:34.863Z,17.58
2023-04-21T07:49:47.430Z,17.79
2023-04-21T07:51:59.988Z,18.03
2023-04-21T07:54:12.526Z,18.18
2023-04-21T07:56:25.089Z,18.28
2023-04-21T07:58:37.616Z,18.44
2023-04-21T08:00:50.217Z,18.58
2023-04-21T08:03:03.148Z,18.79
2023-04-21T08:05:15.974Z,19.00
2023-04-21T08:07:28.877Z,19.14
2023-04-21T08:09:41.467Z,19.15
2023-04-21T08:11:55.316Z,19.24
2023-04-21T08:14:10.082Z,19.37
2023-04-21T08:16:22.721Z,19.57
2023-04-21T08:18:35.264Z,19.72
2023-04-21T08:20:47.947Z,19.93
2023-04-21T08:23:00.684Z,20.08
2023-04-21T08:25:13.234Z,20.24
2023-04-21T08:27:25.810Z,20.46
2023-04-21T08:29:38.399Z,20.68
2023-04-21T08:31:50.983Z,20.90
2023-04-21T08:34:03.508Z,21.01
2023-04-21T08:36:28.405Z,21.05
2023-04-21T08:38:45.475Z,21.08
2023-04-21T08:40:59.879Z,21.19
2023-04-21T08:43:12.461Z,21.44
2023-04-21T08:45:27.447Z,21.70
2023-04-21T08:47:41.587Z,21.96
2023-04-21T08:49:54.438Z,22.10
2023-04-21T08:52:07.104Z,22.29
2023-04-21T08:54:19.823Z,22.46
2023-04-21T08:56:32.452Z,22.59
2023-04-21T08:58:45.022Z,22.70
2023-04-21T09:00:58.354Z,22.78
2023-04-21T09:03:23.246Z,23.00
2023-04-21T09:05:42.059Z,23.16
2023-04-21T09:08:11.780Z,23.34
2023-04-21T09:10:24.540Z,23.41
2023-04-21T09:12:39.989Z,23.45
2023-04-21T09:14:52.588Z,23.42
2023-04-21T09:17:05.599Z,23.30
2023-04-21T09:19:18.469Z,23.37
2023-04-21T09:21:32.394Z,23.47
2023-04-21T09:23:47.712Z,23.72
2023-04-21T09:26:03.168Z,23.77
2023-04-21T09:28:16.295Z,23.75
2023-04-21T09:30:28.848Z,23.98
2023-04-21T09:32:41.662Z,24.07
2023-04-21T09:35:00.059Z,24.23
2023-04-21T09:37:16.639Z,24.34
2023-04-21T09:39:43.087Z,24.45
2023-04-21T09:42:05.156Z,24.50
2023-04-21T09:44:18.513Z,24.59
2023-04-21T09:46:34.491Z,24.71
2023-04-21T09:48:48.012Z,24.76
2023-04-21T09:51:25.465Z,24.89
2023-04-21T09:53:35.080Z,25.24
2023-04-21T09:55:51.530Z,25.27
2023-04-21T09:58:07.254Z,25.28
2023-04-21T10:00:22.094Z,25.35
2023-04-21T10:02:36.537Z,25.52
2023-04-21T10:04:49.502Z,25.66
2023-04-21T10:07:03.534Z,25.71
2023-04-21T10:09:20.336Z,25.88
2023-04-21T10:11:34.515Z,26.28
2023-04-21T10:13:47.391Z,26.47
2023-04-21T10:16:05.345Z,26.56
2023-04-21T10:18:25.134Z,26.57
2023-04-21T10:20:50.729Z,26.84
2023-04-21T10:23:03.335Z,26.83
2023-04-21T10:25:15.972Z,26.61
2023-04-21T10:27:46.654Z,26.69
2023-04-21T10:29:59.756Z,26.81
2023-04-21T10:32:12.478Z,27.01
2023-04-21T10:34:25.241Z,27.03
2023-04-21T10:36:46.937Z,27.21
2023-04-21T10:39:03.765Z,27.42
2023-04-21T10:41:29.006Z,27.85
2023-04-21T10:43:49.735Z,27.76
2023-04-21T10:46:31.511Z,27.72
2023-04-21T10:48:52.592Z,27.68
2023-04-21T10:51:05.565Z,27.50
2023-04-21T10:53:18.176Z,27.39
2023-04-21T10:55:30.810Z,27.21
2023-04-21T10:57:45.398Z,27.30
2023-04-21T10:59:58.919Z,27.36
2023-04-21T11:02:13.577Z,27.27
2023-04-21T11:04:26.653Z,27.19
2023-04-21T11:06:39.601Z,27.18
2023-04-21T11:08:56.092Z,27.33
2023-04-21T11:11:08.667Z,27.51
2023-04-21T11:13:26.685Z,27.61
2023-04-21T11:15:39.224Z,27.59
2023-04-21T11:17:51.838Z,27.69
2023-04-21T11:20:06.583Z,27.59
2023-04-21T11:22:20.879Z,27.58
2023-04-21T11:24:34.096Z,27.77
2023-04-21T11:26:47.349Z,27.55
2023-04-21T11:29:02.938Z,26.74
2023-04-21T11:31:15.998Z,25.96
2023-04-21T11:33:35.604Z,25.92
2023-04-21T11:35:51.504Z,26.48
2023-04-21T11:38:07.147Z,27.11
2023-04-21T11:40:19.830Z,27.52
2023-04-21T11:42:32.511Z,27.99
2023-04-21T11:44:45.090Z,28.21
2023-04-21T11:46:57.677Z,28.37
2023-04-21T11:49:15.328Z,28.53
2023-04-21T11:51:35.912Z,28.58
2023-04-21T11:53:48.460Z,28.69
2023-04-21T11:56:01.275Z,29.04
2023-04-21T11:58:16.328Z,29.12
2023-04-21T12:00:31.074Z,29.20
2023-04-21T12:02:44.074Z,29.62
2023-04-21T12:05:10.298Z,29.99
2023-04-21T12:07:22.996Z,30.20
2023-04-21T12:09:36.405Z,30.36
2023-04-21T12:11:51.305Z,30.46
2023-04-21T12:14:03.944Z,30.43
2023-04-21T12:16:16.540Z,30.21
2023-04-21T12:18:31.821Z,29.40
2023-04-21T12:20:52.141Z,29.36
2023-04-21T12:23:04.732Z,29.90
2023-04-21T12:25:17.457Z,30.45
2023-04-21T12:27:30.001Z,30.95
2023-04-21T12:29:42.653Z,31.43
2023-04-21T12:31:55.313Z,31.95
2023-04-21T12:34:08.176Z,31.75
2023-04-21T12:36:21.214Z,31.06
2023-04-21T12:38:33.780Z,29.83
2023-04-21T12:40:46.396Z,29.52
2023-04-21T12:42:58.964Z,29.74
2023-04-21T12:45:11.816Z,29.93
2023-04-21T12:47:24.417Z,30.07
2023-04-21T12:49:38.004Z,30.22
2023-04-21T12:51:50.683Z,30.50
2023-04-21T12:54:03.525Z,30.69
2023-04-21T12:56:16.220Z,30.89
2023-04-21T12:58:28.872Z,31.23
2023-04-21T13:00:41.499Z,31.35
2023-04-21T13:02:54.138Z,31.47
2023-04-21T13:05:07.421Z,31.27
2023-04-21T13:07:22.585Z,30.59
2023-04-21T13:09:35.278Z,29.63
2023-04-21T13:11:47.837Z,29.46
2023-04-21T13:14:00.598Z,30.04
2023-04-21T13:16:13.200Z,30.52
2023-04-21T13:18:25.850Z,30.58
2023-04-21T13:20:38.374Z,29.75
2023-04-21T13:22:51.002Z,28.61
2023-04-21T13:25:04.522Z,27.51
2023-04-21T13:27:17.157Z,26.51
2023-04-21T13:29:33.961Z,26.07
2023-04-21T13:31:46.616Z,25.67
2023-04-21T13:33:59.732Z,25.97
2023-04-21T13:36:13.159Z,25.84
2023-04-21T13:38:26.275Z,25.37
2023-04-21T13:40:39.070Z,24.63
2023-04-21T13:42:51.780Z,23.91
2023-04-21T13:45:05.440Z,23.43
2023-04-21T13:47:17.993Z,23.18
2023-04-21T13:49:31.014Z,23.83
2023-04-21T13:51:43.775Z,24.53
2023-04-21T13:53:56.428Z,25.12
2023-04-21T13:56:10.136Z,25.49
2023-04-21T13:58:22.963Z,25.63
2023-04-21T14:00:35.501Z,25.68
2023-04-21T14:02:48.235Z,25.80
2023-04-21T14:05:01.323Z,25.63
2023-04-21T14:07:17.855Z,25.45
2023-04-21T14:09:30.583Z,25.27
2023-04-21T14:11:43.361Z,25.32
2023-04-21T14:14:08.226Z,25.25
2023-04-21T14:16:22.043Z,25.38
2023-04-21T14:18:34.774Z,25.45
2023-04-21T14:20:47.382Z,25.36
2023-04-21T14:22:59.902Z,25.29
2023-04-21T14:25:12.490Z,25.38
2023-04-21T14:27:25.081Z,25.36
2023-04-21T14:29:37.678Z,25.31
2023-04-21T14:31:51.049Z,25.32
2023-04-21T14:34:03.888Z,25.20
2023-04-21T14:36:16.606Z,24.90
2023-04-21T14:38:30.726Z,24.62
2023-04-21T14:40:43.390Z,24.26
2023-04-21T14:42:55.949Z,24.04
2023-04-21T14:45:09.169Z,23.95
2023-04-21T14:47:22.022Z,23.88
2023-04-21T14:49:34.829Z,23.86
2023-04-21T14:51:49.533Z,23.88
2023-04-21T14:54:02.078Z,23.66
2023-04-21T14:56:15.811Z,23.35
2023-04-21T14:58:28.366Z,22.96
2023-04-21T15:00:41.145Z,22.77
2023-04-21T15:02:53.785Z,22.64
2023-04-21T15:05:08.580Z,22.51
2023-04-21T15:07:24.241Z,22.39
2023-04-21T15:09:37.741Z,22.15
2023-04-21T15:11:50.615Z,22.02
2023-04-21T15:14:03.235Z,22.06
2023-04-21T15:16:15.931Z,22.05
2023-04-21T15:18:28.473Z,22.08
2023-04-21T15:20:45.113Z,22.03
2023-04-21T15:22:58.254Z,21.92
2023-04-21T15:25:11.090Z,21.93
2023-04-21T15:27:23.622Z,22.00
2023-04-21T15:29:36.499Z,22.01
2023-04-21T15:31:49.270Z,21.91
2023-04-21T15:34:01.922Z,21.75
2023-04-21T15:36:14.722Z,21.49
2023-04-21T15:38:27.716Z,21.29
2023-04-21T15:40:53.187Z,21.28
2023-04-21T15:43:12.612Z,21.29
2023-04-21T15:45:25.256Z,21.34
2023-04-21T15:47:37.949Z,21.42
2023-04-21T15:49:50.771Z,21.46
2023-04-21T15:52:04.661Z,21.51
2023-04-21T15:54:17.252Z,21.61
2023-04-21T15:56:29.972Z,21.74
2023-04-21T15:58:42.701Z,21.91
2023-04-21T16:00:55.274Z,21.99
2023-04-21T16:03:09.264Z,21.93
2023-04-21T16:05:24.455Z,21.68
2023-04-21T16:07:39.209Z,21.48
2023-04-21T16:09:52.728Z,21.34
2023-04-21T16:12:09.936Z,21.24
2023-04-21T16:14:22.569Z,21.15
2023-04-21T16:16:37.229Z,21.08
2023-04-21T16:18:49.946Z,20.96
2023-04-21T16:21:02.586Z,20.88
2023-04-21T16:23:15.598Z,20.82
2023-04-21T16:25:28.320Z,20.76
2023-04-21T16:27:40.891Z,20.69
2023-04-21T16:29:53.510Z,20.57
2023-04-21T16:32:06.419Z,20.47
2023-04-21T16:34:19.151Z,20.33
2023-04-21T16:36:32.374Z,20.21
2023-04-21T16:38:45.024Z,20.10
2023-04-21T16:40:57.603Z,20.00
2023-04-21T16:43:10.197Z,19.92
2023-04-21T16:45:22.781Z,19.85
2023-04-21T16:47:41.243Z,19.78
2023-04-21T16:49:54.552Z,19.72
2023-04-21T16:52:07.126Z,19.63
2023-04-21T16:54:19.656Z,19.54
2023-04-21T16:56:32.198Z,19.45
2023-04-21T16:58:44.866Z,19.34
2023-04-21T17:00:57.565Z,19.26
2023-04-21T17:03:10.273Z,19.17
2023-04-21T17:05:23.444Z,19.04
2023-04-21T17:07:36.109Z,18.93
2023-04-21T17:09:48.978Z,18.84
2023-04-21T17:12:02.686Z,18.73
2023-04-21T17:14:15.259Z,18.65
2023-04-21T17:16:28.297Z,18.55
2023-04-21T17:18:40.976Z,18.47
2023-04-21T17:20:55.747Z,18.41
2023-04-21T17:23:08.287Z,18.34
2023-04-21T17:25:20.890Z,18.27
2023-04-21T17:27:37.711Z,18.22
2023-04-21T17:29:51.120Z,18.15
2023-04-21T17:32:03.862Z,18.06
2023-04-21T17:34:16.441Z,17.98
2023-04-21T17:36:29.854Z,17.89
2023-04-21T17:38:43.111Z,17.79
2023-04-21T17:40:55.993Z,17.72
2023-04-21T17:43:08.505Z,17.66
2023-04-21T17:45:21.323Z,17.59
2023-04-21T17:47:34.412Z,17.51
2023-04-21T17:49:47.584Z,17.45
2023-04-21T17:52:00.750Z,17.37
2023-04-21T17:54:13.317Z,17.29
2023-04-21T17:56:25.869Z,17.21
2023-04-21T17:58:40.419Z,17.13
2023-04-21T18:00:53.128Z,17.06
2023-04-21T18:03:05.981Z,16.99
2023-04-21T18:05:18.941Z,16.86
2023-04-21T18:07:31.751Z,16.67
2023-04-21T18:09:48.648Z,16.50
2023-04-21T18:12:01.730Z,16.38
2023-04-21T18:14:14.733Z,16.27
2023-04-21T18:16:27.597Z,16.14
2023-04-21T18:18:41.084Z,16.03
2023-04-21T18:20:53.687Z,15.94
2023-04-21T18:23:06.259Z,15.81
2023-04-21T18:25:34.021Z,15.65
2023-04-21T18:27:51.504Z,15.47
2023-04-21T18:30:04.889Z,15.37
2023-04-21T18:32:17.482Z,15.28
2023-04-21T18:34:29.992Z,15.18
2023-04-21T18:36:42.980Z,15.11
2023-04-21T18:38:55.802Z,15.05
2023-04-21T18:41:08.443Z,15.00
2023-04-21T18:43:21.216Z,14.96
2023-04-21T18:45:34.110Z,14.90
2023-04-21T18:47:46.879Z,14.84
2023-04-21T18:49:59.442Z,14.79
2023-04-21T18:52:14.010Z,14.73
2023-04-21T18:54:27.049Z,14.71
2023-04-21T18:56:39.696Z,14.67
2023-04-21T18:58:57.437Z,14.61
2023-04-21T19:01:10.222Z,14.53
2023-04-21T19:03:25.137Z,14.46
2023-04-21T19:05:40.347Z,14.40
2023-04-21T19:07:58.661Z,14.34
2023-04-21T19:10:12.424Z,14.26
2023-04-21T19:12:26.044Z,14.21
2023-04-21T19:14:46.464Z,14.15
2023-04-21T19:17:00.076Z,14.06
2023-04-21T19:19:12.900Z,14.02
2023-04-21T19:21:25.617Z,13.97
2023-04-21T19:23:38.517Z,13.92
2023-04-21T19:25:54.537Z,13.87
2023-04-21T19:28:07.262Z,13.83
2023-04-21T19:30:19.939Z,13.80
2023-04-21T19:32:32.771Z,13.73
2023-04-21T19:34:46.102Z,13.67
2023-04-21T19:36:58.924Z,13.60
2023-04-21T19:39:12.260Z,13.54
2023-04-21T19:41:24.904Z,13.48
2023-04-21T19:43:37.419Z,13.45
2023-04-21T19:45:51.180Z,13.41
2023-04-21T19:48:04.651Z,13.37
2023-04-21T19:50:17.577Z,13.32
2023-04-21T19:52:30.251Z,13.27
2023-04-21T19:54:42.853Z,13.22
2023-04-21T19:56:55.584Z,13.15
2023-04-21T19:59:08.133Z,13.09
2023-04-21T20:01:20.692Z,13.02
2023-04-21T20:03:33.677Z,12.96
2023-04-21T20:05:47.010Z,12.88
2023-04-21T20:07:59.876Z,12.78
2023-04-21T20:10:13.724Z,12.71
2023-04-21T20:12:26.336Z,12.63
2023-04-21T20:14:38.891Z,12.56
2023-04-21T20:16:51.454Z,12.51
2023-04-21T20:19:04.594Z,12.43
2023-04-21T20:21:17.163Z,12.33
2023-04-21T20:23:29.791Z,12.25
2023-04-21T20:25:43.349Z,12.20
2023-04-21T20:27:56.611Z,12.14
2023-04-21T20:30:09.439Z,12.07
2023-04-21T20:32:22.060Z,12.00
2023-04-21T20:34:36.135Z,11.94
2023-04-21T20:36:48.850Z,11.89
2023-04-21T20:39:01.414Z,11.84
2023-04-21T20:41:14.426Z,11.78
2023-04-21T20:43:27.845Z,11.72
2023-04-21T20:45:41.331Z,11.67
2023-04-21T20:47:54.353Z,11.60
2023-04-21T20:50:07.482Z,11.54
2023-04-21T20:52:20.280Z,11.47
2023-04-21T20:54:34.586Z,11.39
2023-04-21T20:56:48.403Z,11.31
2023-04-21T20:59:01.392Z,11.24
2023-04-21T21:01:14.073Z,11.15
2023-04-21T21:03:26.692Z,11.07
2023-04-21T21:05:39.491Z,10.98
2023-04-21T21:07:52.089Z,10.91
2023-04-21T21:10:05.296Z,10.84
2023-04-21T21:12:17.993Z,10.76
2023-04-21T21:14:31.351Z,10.70
2023-04-21T21:16:44.562Z,10.61
2023-04-21T21:18:57.278Z,10.55
2023-04-21T21:21:09.817Z,10.48
2023-04-21T21:23:22.356Z,10.43
2023-04-21T21:25:35.004Z,10.37
2023-04-21T21:27:47.733Z,10.30
2023-04-21T21:30:00.372Z,10.24
2023-04-21T21:32:13.108Z,10.19
2023-04-21T21:34:25.762Z,10.14
2023-04-21T21:36:38.341Z,10.08
2023-04-21T21:38:51.222Z,10.03
2023-04-21T21:41:03.795Z,9.96
2023-04-21T21:43:16.380Z,9.89
2023-04-21T21:45:29.039Z,9.82
2023-04-21T21:47:44.159Z,9.76
2023-04-21T21:49:59.105Z,9.70
2023-04-21T21:52:11.858Z,9.62
2023-04-21T21:54:24.402Z,9.58
2023-04-21T21:56:37.088Z,9.56
2023-04-21T21:58:49.717Z,9.53
2023-04-21T22:01:02.267Z,9.51
2023-04-21T22:03:14.936Z,9.48
2023-04-21T22:05:27.648Z,9.43
2023-04-21T22:07:43.223Z,9.40
2023-04-21T22:09:59.590Z,9.38
2023-04-21T22:12:12.351Z,9.35
2023-04-21T22:14:24.886Z,9.33
2023-04-21T22:16:37.738Z,9.31
2023-04-21T22:18:50.817Z,9.30
2023-04-21T22:21:04.078Z,9.27
2023-04-21T22:23:16.938Z,9.23
2023-04-21T22:25:29.533Z,9.21
2023-04-21T22:27:42.042Z,9.19
2023-04-21T22:29:55.006Z,9.16
2023-04-21T22:32:07.619Z,9.12
2023-04-21T22:34:20.209Z,9.09
2023-04-21T22:36:32.821Z,9.05
2023-04-21T22:38:46.386Z,9.01
2023-04-21T22:40:59.239Z,8.97
2023-04-21T22:43:11.980Z,8.91
2023-04-21T22:45:24.606Z,8.86
2023-04-21T22:47:37.290Z,8.81
2023-04-21T22:49:49.839Z,8.77
2023-04-21T22:52:02.365Z,8.70
2023-04-21T22:54:15.342Z,8.65
2023-04-21T22:56:29.444Z,8.60
2023-04-21T22:58:42.820Z,8.57
2023-04-21T23:00:55.535Z,8.53
2023-04-21T23:03:08.247Z,8.46
2023-04-21T23:05:20.885Z,8.42
2023-04-21T23:07:33.433Z,8.36
2023-04-21T23:09:46.079Z,8.33
2023-04-21T23:11:58.772Z,8.30
2023-04-21T23:14:11.312Z,8.27
2023-04-21T23:16:23.841Z,8.26
2023-04-21T23:18:36.408Z,8.24
2023-04-21T23:20:49.052Z,8.22
2023-04-21T23:23:01.634Z,8.20
2023-04-21T23:25:14.213Z,8.17
2023-04-21T23:27:26.746Z,8.14
2023-04-21T23:29:39.590Z,8.12
2023-04-21T23:31:52.626Z,8.09
2023-04-21T23:34:05.339Z,8.05
2023-04-21T23:36:17.892Z,8.01
2023-04-21T23:38:30.460Z,7.99
2023-04-21T23:40:43.076Z,7.95
2023-04-21T23:42:55.731Z,7.92
2023-04-21T23:45:09.332Z,7.90
2023-04-21T23:47:21.944Z,7.87
2023-04-21T23:49:34.689Z,7.85
2023-04-21T23:51:48.041Z,7.82
2023-04-21T23:54:01.655Z,7.78
2023-04-21T23:56:14.562Z,7.75
2023-04-21T23:58:28.042Z,7.71
